Pagina principale
METAR-TAF:

METAR-TAF

Aeroporti :

Fiume, Croazia

latitudine: 45-13N, longitudine: 014-35E, altezza: 85 m

Osservazione

Il bollettino è stato emesso 23 minuti fa, alle 20:30 UTC
Vento 6 kt da nord, variando fra nord/nord-ovest e est/nord-est
Temperature 17°C
Umidità 48%
Pressione 1019 hPa
Visibilità 10 km o più
nessuna nube inferiore a 1500 m e nessun cumulonembo

METAR: LDRI 222030Z 36006KT 330V060 CAVOK 17/06 Q1019

Ora: 22:53 (20:53 UTC)

Previsione

Il bollettino è stato emesso 3 ore e 28 minuti fa, alle 17:25 UTC
Previsione valida dal 22 alle 18 UTC al 23 alle 18 UTC
Vento 10 kt da nord/nord-est
Visibilità 10 km o più
nessuna nube inferiore a 1500 m e nessun cumulonembo
Temporaneamente
dal 23 alle 12 UTC al 23 alle 18 UTC
Vento 8 kt da nord-ovest

TAF: LDRI 221725Z 2218/2318 03010KT CAVOK TX22/2313Z TN14/2303Z TEMPO 2312/2318 32008KT

Osservazioni e previsioni meteorologiche di più di 4000 aeroporti (messaggi METAR e TAF).

Le stazioni disponibili sono rappresentate dai dischi gialli e rossi sulla carta.

Puntare il mouse per vedere il nome della stazione.

Clicca sopra per visualizzare le osservazioni e previsioni meteorologiche.

Per cambiare la mappa : fare clic sui pulsanti verdi con una croce nera per ingrandire, il pulsante verde con un trattino per diminuire, o sulla freccia verde per le mappe adiacenti.


METAR-TAF: